Time;durP1;ratioP1;P1;durP2;ratioP2;P2;SDS_P1;SDS_P2;PMS_P1;PMS_P2;Temp;Humidity;BMP_temperature;BMP_pressure;BME280_temperature;BME280_humidity;BME280_pressure;Samples;Min_cycle;Max_cycle;Signal;HPM_P1;HPM_P2
2023/10/27 00:02:27;;;;;;;4.50;2.30;;;;;;;21.42;47.95;94126.47;6017912;28;109223;-69
2023/10/27 00:05:30;;;;;;;4.97;2.30;;;;;;;21.46;47.44;94122.03;6010497;28;110071;-69
2023/10/27 00:08:33;;;;;;;3.13;2.07;;;;;;;21.46;47.24;94130.03;6021220;28;110765;-69
2023/10/27 00:11:36;;;;;;;6.30;2.30;;;;;;;21.46;47.28;94116.72;6020993;28;109176;-69
2023/10/27 00:14:41;;;;;;;4.60;2.13;;;;;;;21.47;47.30;94116.41;6021581;28;109395;-67
2023/10/27 00:17:44;;;;;;;3.87;2.10;;;;;;;21.48;47.56;94119.84;6023855;28;109407;-69
2023/10/27 00:20:47;;;;;;;3.23;1.80;;;;;;;21.48;47.58;94125.16;6020151;28;109067;-69
2023/10/27 00:23:51;;;;;;;3.83;2.60;;;;;;;21.45;47.41;94120.50;6021537;28;109068;-69
2023/10/27 00:26:54;;;;;;;8.17;2.07;;;;;;;21.47;47.74;94121.72;6014191;28;110158;-69
2023/10/27 00:29:58;;;;;;;3.17;1.97;;;;;;;21.46;47.14;94114.06;6020473;28;109206;-69
2023/10/27 00:33:01;;;;;;;4.73;2.10;;;;;;;21.44;46.93;94095.75;6022825;28;109147;-68
2023/10/27 00:36:06;;;;;;;5.50;2.57;;;;;;;21.44;47.54;94101.06;6044626;28;109152;-69
2023/10/27 00:39:09;;;;;;;6.13;2.70;;;;;;;21.44;47.38;94109.06;6010604;28;109417;-69
2023/10/27 00:42:12;;;;;;;4.67;2.33;;;;;;;21.44;47.61;94103.75;6027952;28;110139;-71
2023/10/27 00:45:17;;;;;;;4.60;2.17;;;;;;;21.45;47.35;94109.84;6031455;28;109281;-69
2023/10/27 00:48:21;;;;;;;4.67;2.00;;;;;;;21.43;47.76;94107.50;6015105;28;109213;-67
2023/10/27 00:51:24;;;;;;;4.77;2.10;;;;;;;21.44;47.78;94098.41;6014873;28;111156;-70
2023/10/27 00:54:28;;;;;;;4.50;2.20;;;;;;;21.43;47.38;94101.41;6020896;29;109044;-69
2023/10/27 00:57:33;;;;;;;5.27;2.47;;;;;;;21.43;47.62;94104.84;6020204;28;109136;-68
2023/10/27 01:00:39;;;;;;;5.60;2.43;;;;;;;21.43;47.46;94098.75;6008455;28;109120;-68
2023/10/27 01:03:42;;;;;;;3.70;2.53;;;;;;;21.43;47.64;94096.88;6020069;28;109656;-68
2023/10/27 01:06:46;;;;;;;4.70;2.67;;;;;;;21.43;47.66;94096.88;6020366;28;110166;-70
2023/10/27 01:09:49;;;;;;;5.30;2.80;;;;;;;21.43;47.77;94112.84;6020841;29;109323;-70
2023/10/27 01:12:52;;;;;;;5.23;2.97;;;;;;;21.43;47.87;94117.38;6011090;28;110044;-69
2023/10/27 01:15:56;;;;;;;5.43;2.70;;;;;;;21.42;47.84;94123.81;6018850;28;110861;-68
2023/10/27 01:19:00;;;;;;;5.40;2.97;;;;;;;21.41;47.71;94116.91;6020682;28;109511;-68
2023/10/27 01:22:03;;;;;;;4.70;3.10;;;;;;;21.42;47.64;94115.81;6019254;28;110430;-67
2023/10/27 01:25:09;;;;;;;4.90;3.10;;;;;;;21.42;47.76;94121.13;6012585;29;109525;-68
2023/10/27 01:28:12;;;;;;;5.57;2.80;;;;;;;21.42;47.65;94127.25;6018478;28;110976;-70
2023/10/27 01:31:15;;;;;;;5.17;3.13;;;;;;;21.40;47.51;94139.31;6018794;29;109345;-68
2023/10/27 01:34:19;;;;;;;3.87;2.87;;;;;;;21.42;47.72;94137.88;6010477;28;109691;-70
2023/10/27 01:37:22;;;;;;;6.73;2.90;;;;;;;21.40;47.61;94132.13;6025024;28;111063;-70
2023/10/27 01:40:27;;;;;;;4.97;3.30;;;;;;;21.40;47.91;94134.78;6037943;28;109229;-69
2023/10/27 01:43:30;;;;;;;8.40;3.00;;;;;;;21.37;47.76;94129.31;6020226;28;109881;-69
2023/10/27 01:46:33;;;;;;;5.37;2.63;;;;;;;21.34;47.24;94128.09;6008255;28;109117;-69
2023/10/27 01:49:36;;;;;;;4.43;2.67;;;;;;;21.35;47.72;94136.84;6028378;28;110245;-69
2023/10/27 01:52:41;;;;;;;6.53;3.00;;;;;;;21.34;47.61;94141.41;6028920;28;108901;-70
2023/10/27 01:55:45;;;;;;;5.07;2.73;;;;;;;21.31;47.92;94134.03;6038002;28;109143;-69
2023/10/27 01:58:48;;;;;;;7.10;2.70;;;;;;;21.32;48.02;94126.81;6010086;28;109366;-69
2023/10/27 02:01:51;;;;;;;7.93;2.97;;;;;;;21.32;47.56;94127.59;6018738;28;109635;-68
2023/10/27 02:04:54;;;;;;;4.27;2.87;;;;;;;21.32;47.96;94124.94;6019658;28;109262;-69
2023/10/27 02:07:58;;;;;;;8.33;3.00;;;;;;;21.32;47.70;94118.84;6013853;28;109297;-68
2023/10/27 02:11:03;;;;;;;4.70;2.50;;;;;;;21.29;47.79;94111.50;6014522;28;109854;-69
2023/10/27 02:14:06;;;;;;;4.50;2.47;;;;;;;21.30;47.57;94116.50;6020462;28;109269;-69
2023/10/27 02:17:11;;;;;;;4.33;2.60;;;;;;;21.33;47.69;94110.53;6021601;28;110321;-70
2023/10/27 02:20:14;;;;;;;6.17;3.03;;;;;;;21.30;47.68;94105.88;6030053;28;109096;-69
2023/10/27 02:23:17;;;;;;;8.63;3.43;;;;;;;21.32;47.99;94116.19;6020569;28;109126;-69
2023/10/27 02:26:22;;;;;;;4.57;2.73;;;;;;;21.30;47.85;94113.84;6018424;28;109040;-69
2023/10/27 02:29:25;;;;;;;5.27;3.23;;;;;;;21.31;48.08;94114.63;6039750;28;109137;-68
2023/10/27 02:32:28;;;;;;;6.93;3.23;;;;;;;21.30;47.91;94107.75;6011047;28;109402;-69
2023/10/27 02:35:31;;;;;;;7.63;3.00;;;;;;;21.30;48.03;94089.91;6019023;28;109271;-68
2023/10/27 02:38:34;;;;;;;4.07;2.97;;;;;;;21.32;47.90;94085.03;6031497;28;109240;-69
2023/10/27 02:41:39;;;;;;;4.40;3.07;;;;;;;21.30;48.34;94083.81;6040695;28;109172;-68
2023/10/27 02:44:42;;;;;;;5.87;3.03;;;;;;;21.31;47.86;94088.78;6014921;28;109283;-68
2023/10/27 02:47:46;;;;;;;6.70;2.60;;;;;;;21.31;47.88;94082.69;6018019;28;109196;-68
2023/10/27 02:50:49;;;;;;;6.33;2.60;;;;;;;21.31;47.89;94091.47;6019763;29;109068;-69
2023/10/27 02:53:52;;;;;;;5.60;2.50;;;;;;;21.29;48.42;94085.69;6009555;28;109233;-69
2023/10/27 02:56:57;;;;;;;6.50;3.13;;;;;;;21.29;48.26;94092.88;6018049;28;110423;-68
2023/10/27 03:00:00;;;;;;;4.63;2.67;;;;;;;21.25;47.92;94095.41;6018618;28;108919;-69
2023/10/27 03:03:03;;;;;;;3.60;2.57;;;;;;;21.26;47.89;94102.31;6018061;28;112300;-69
2023/10/27 03:06:07;;;;;;;5.60;3.23;;;;;;;21.30;48.23;94097.09;6008263;28;109626;-70
2023/10/27 03:09:10;;;;;;;7.20;4.10;;;;;;;21.29;48.08;94106.19;6018918;28;108996;-70
2023/10/27 03:12:16;;;;;;;7.57;4.63;;;;;;;21.28;48.00;94096.66;6018393;29;109048;-68
2023/10/27 03:15:19;;;;;;;5.43;3.30;;;;;;;21.28;48.19;94105.41;6017611;28;109314;-67
2023/10/27 03:18:23;;;;;;;4.20;3.10;;;;;;;21.36;47.99;94085.19;6011735;28;111254;-68
2023/10/27 03:21:26;;;;;;;8.07;6.53;;;;;;;21.35;48.40;94087.06;6018710;29;110227;-68
2023/10/27 03:24:29;;;;;;;39.23;35.33;;;;;;;21.10;48.99;94090.66;6018139;28;110616;-68
2023/10/27 03:27:34;;;;;;;53.87;48.97;;;;;;;21.08;49.03;94084.88;6011230;28;110171;-66
2023/10/27 03:30:38;;;;;;;80.30;73.10;;;;;;;21.24;48.50;94101.84;6016598;28;109501;-68
2023/10/27 03:33:41;;;;;;;58.53;53.00;;;;;;;21.20;49.02;94106.25;6026822;28;109471;-68
2023/10/27 03:36:44;;;;;;;29.70;26.87;;;;;;;20.86;49.67;94092.03;6024844;28;109151;-67
2023/10/27 03:39:47;;;;;;;36.27;32.83;;;;;;;20.79;49.65;94088.28;6009672;28;110248;-68
2023/10/27 03:42:52;;;;;;;34.10;30.77;;;;;;;20.84;49.92;94091.56;6020074;28;109448;-67
2023/10/27 03:45:55;;;;;;;32.03;28.93;;;;;;;20.87;49.77;94085.59;6031756;28;109278;-67
2023/10/27 03:48:58;;;;;;;26.73;24.10;;;;;;;21.05;48.92;94083.66;6017518;28;110110;-68
2023/10/27 03:52:01;;;;;;;32.10;29.10;;;;;;;21.14;49.47;94079.06;6006839;28;109235;-66
2023/10/27 03:55:07;;;;;;;30.03;26.83;;;;;;;21.25;49.33;94071.47;6017186;28;109292;-65
2023/10/27 03:58:15;;;;;;;17.10;15.13;;;;;;;21.28;49.29;94076.16;6017043;28;109288;-66
2023/10/27 04:01:18;;;;;;;30.93;27.63;;;;;;;21.34;50.12;94066.88;6011270;28;110164;-66
2023/10/27 04:04:22;;;;;;;23.30;17.20;;;;;;;21.40;50.15;94070.13;6012571;28;110279;-66
2023/10/27 04:07:25;;;;;;;28.10;25.37;;;;;;;21.44;49.76;94058.50;6015424;28;109072;-66
2023/10/27 04:10:31;;;;;;;25.20;22.30;;;;;;;21.42;50.26;94033.31;6017096;28;109131;-67
2023/10/27 04:13:36;;;;;;;20.63;18.40;;;;;;;21.44;49.66;94036.44;6007365;28;109047;-66
2023/10/27 04:16:39;;;;;;;20.57;18.50;;;;;;;21.45;50.16;94028.13;6017224;29;109188;-66
2023/10/27 04:19:44;;;;;;;15.00;13.40;;;;;;;21.40;50.04;94023.00;6017551;28;109260;-65
2023/10/27 04:22:47;;;;;;;13.97;12.20;;;;;;;21.31;50.10;94019.63;6015662;28;109132;-67
2023/10/27 04:25:51;;;;;;;15.93;10.27;;;;;;;21.29;49.98;94013.84;6004553;28;109248;-66
2023/10/27 04:28:55;;;;;;;21.63;9.20;;;;;;;21.26;49.13;94011.06;6025865;28;109164;-66
2023/10/27 04:31:59;;;;;;;8.23;7.20;;;;;;;21.21;49.04;93996.06;6040920;28;109104;-69
2023/10/27 04:35:02;;;;;;;13.63;7.50;;;;;;;21.19;49.05;93995.63;6039948;28;110526;-65
2023/10/27 04:38:05;;;;;;;10.03;5.93;;;;;;;21.15;49.00;93994.69;6030410;28;109190;-66
2023/10/27 04:41:09;;;;;;;9.00;5.40;;;;;;;21.12;48.98;93995.34;6040479;28;109276;-65
2023/10/27 04:44:13;;;;;;;10.73;6.30;;;;;;;21.15;49.17;94005.34;6040458;28;109280;-66
2023/10/27 04:47:17;;;;;;;11.50;6.00;;;;;;;21.14;48.68;94006.44;6033116;28;109858;-66
2023/10/27 04:50:20;;;;;;;10.53;9.07;;;;;;;21.15;48.87;94008.00;6041528;28;109382;-67
2023/10/27 04:53:23;;;;;;;14.43;10.37;;;;;;;21.10;48.97;94019.63;6044766;28;109158;-67
2023/10/27 04:56:26;;;;;;;10.73;9.50;;;;;;;21.08;49.25;94016.50;6045135;28;109246;-67
2023/10/27 04:59:31;;;;;;;9.47;7.93;;;;;;;21.07;49.10;94020.28;6015033;28;108950;-67
2023/10/27 05:02:34;;;;;;;7.80;6.60;;;;;;;21.07;48.74;94020.28;6021223;29;109119;-67
2023/10/27 05:05:37;;;;;;;8.27;5.93;;;;;;;21.07;48.97;94006.19;6040381;28;109260;-65
2023/10/27 05:08:40;;;;;;;7.70;5.43;;;;;;;21.05;48.96;94006.53;6043962;28;109087;-65
2023/10/27 05:11:45;;;;;;;7.13;5.13;;;;;;;21.08;48.54;94005.09;6034912;28;110194;-66
2023/10/27 05:14:50;;;;;;;5.43;4.93;;;;;;;21.06;48.64;94008.06;6044064;28;109232;-66
2023/10/27 05:17:53;;;;;;;8.03;6.90;;;;;;;21.06;48.69;94015.28;6044115;28;109754;-66
2023/10/27 05:20:56;;;;;;;8.13;4.80;;;;;;;21.05;48.67;94006.53;6016889;28;109091;-65
2023/10/27 05:24:01;;;;;;;7.97;4.63;;;;;;;21.07;48.69;94003.53;6014843;28;109405;-65
2023/10/27 05:27:04;;;;;;;5.57;4.50;;;;;;;21.06;48.40;94005.41;6020260;28;110167;-66
2023/10/27 05:30:10;;;;;;;7.87;7.07;;;;;;;21.07;48.29;94003.53;6034634;28;110172;-66
2023/10/27 05:33:13;;;;;;;11.63;10.43;;;;;;;21.08;48.71;94003.22;6010048;28;109317;-64
2023/10/27 05:36:16;;;;;;;14.43;12.13;;;;;;;21.06;48.52;94001.97;5996531;29;109629;-66
2023/10/27 05:39:20;;;;;;;9.20;7.73;;;;;;;21.08;48.23;94005.09;6005444;28;109132;-66
2023/10/27 05:42:23;;;;;;;11.80;9.40;;;;;;;21.03;48.22;94005.25;6020370;29;109094;-66
2023/10/27 05:45:28;;;;;;;9.63;8.03;;;;;;;21.09;48.32;93996.00;6009765;28;110341;-66
2023/10/27 05:48:31;;;;;;;9.40;6.90;;;;;;;21.07;48.18;93999.00;6020196;28;109184;-66
2023/10/27 05:51:34;;;;;;;8.80;7.90;;;;;;;21.10;48.50;94014.31;6020525;29;110143;-65
2023/10/27 05:54:37;;;;;;;9.10;8.20;;;;;;;21.10;48.26;94008.19;6030239;28;109262;-65
2023/10/27 05:57:44;;;;;;;8.87;6.27;;;;;;;21.10;48.05;94000.22;6030704;28;109143;-65
2023/10/27 06:00:49;;;;;;;9.27;6.20;;;;;;;21.10;48.30;94013.53;6020038;29;111174;-65
2023/10/27 06:03:53;;;;;;;7.17;5.60;;;;;;;21.13;47.99;94016.31;6023800;28;110535;-64
2023/10/27 06:06:57;;;;;;;8.47;6.20;;;;;;;21.18;47.99;94010.81;6033215;28;109038;-65
2023/10/27 06:10:00;;;;;;;10.43;6.20;;;;;;;21.18;48.16;94023.34;6043089;28;109018;-65
2023/10/27 06:13:03;;;;;;;7.20;5.30;;;;;;;21.23;47.89;94033.00;6043499;28;109060;-65
2023/10/27 06:16:08;;;;;;;7.17;5.23;;;;;;;21.24;47.95;94045.97;6042508;28;109079;-65
2023/10/27 06:19:11;;;;;;;14.67;5.90;;;;;;;21.24;47.74;94045.19;6027266;28;111594;-67
2023/10/27 06:22:15;;;;;;;8.27;5.03;;;;;;;21.24;48.32;94045.19;6019460;29;109370;-66
2023/10/27 06:25:19;;;;;;;10.50;6.63;;;;;;;21.24;48.10;94056.63;6019407;28;109133;-66
2023/10/27 06:28:22;;;;;;;6.93;5.50;;;;;;;21.24;48.30;94059.28;6018869;28;110294;-66
2023/10/27 06:31:27;;;;;;;9.67;4.80;;;;;;;21.23;48.13;94047.06;6009038;28;109342;-67
2023/10/27 06:34:30;;;;;;;10.03;5.13;;;;;;;21.24;47.99;94061.16;6026050;28;109215;-66
2023/10/27 06:37:35;;;;;;;6.40;4.93;;;;;;;21.25;48.05;94057.41;6042065;28;110189;-66
2023/10/27 06:40:38;;;;;;;6.13;4.20;;;;;;;21.24;48.41;94051.28;6036951;28;109261;-64
2023/10/27 06:43:41;;;;;;;7.00;4.80;;;;;;;21.25;48.22;94054.72;6037588;28;109054;-65
2023/10/27 06:46:45;;;;;;;5.57;4.73;;;;;;;21.25;48.20;94054.72;5995843;29;109097;-66
2023/10/27 06:49:49;;;;;;;8.80;6.93;;;;;;;21.27;48.36;94050.63;6004883;28;112954;-66
2023/10/27 06:52:52;;;;;;;8.17;6.00;;;;;;;21.25;48.40;94044.09;6008502;29;109278;-65
2023/10/27 06:55:55;;;;;;;6.80;5.10;;;;;;;21.26;48.25;94037.66;6035607;28;109301;-65
2023/10/27 06:58:58;;;;;;;9.67;6.73;;;;;;;21.25;48.21;94036.88;6028747;28;109134;-65
2023/10/27 07:02:03;;;;;;;7.50;6.67;;;;;;;21.27;48.10;94031.25;6019064;29;110188;-65
2023/10/27 07:05:08;;;;;;;10.40;5.60;;;;;;;21.28;48.51;94041.56;6008704;29;111084;-66
2023/10/27 07:08:12;;;;;;;6.83;5.13;;;;;;;21.35;48.21;94046.38;6018115;29;109076;-65
2023/10/27 07:11:15;;;;;;;9.63;6.10;;;;;;;21.33;48.52;94054.66;6018822;28;110006;-65
2023/10/27 07:14:18;;;;;;;6.80;5.30;;;;;;;21.35;48.40;94044.50;6014203;28;109137;-66
2023/10/27 07:17:23;;;;;;;8.17;6.00;;;;;;;21.43;47.96;94032.22;6013202;29;109173;-65
2023/10/27 07:20:26;;;;;;;9.70;5.97;;;;;;;21.47;48.21;94033.88;6018618;28;110207;-66
2023/10/27 07:23:30;;;;;;;7.13;5.27;;;;;;;21.45;48.33;94036.09;6018949;29;111843;-67
2023/10/27 07:26:33;;;;;;;8.00;5.87;;;;;;;21.47;48.16;94030.44;6008411;28;109498;-66
2023/10/27 07:29:36;;;;;;;8.07;6.63;;;;;;;21.49;47.88;94025.56;6022758;28;109288;-65
2023/10/27 07:32:41;;;;;;;7.00;5.70;;;;;;;21.48;48.44;94030.13;6041675;28;109176;-64
2023/10/27 07:35:46;;;;;;;11.03;6.80;;;;;;;21.49;48.31;94026.34;6041153;28;109088;-65
2023/10/27 07:38:50;;;;;;;10.97;7.03;;;;;;;21.49;48.41;94021.03;6030858;28;110153;-65
2023/10/27 07:41:53;;;;;;;8.60;6.00;;;;;;;21.50;48.29;94027.91;6019597;28;109297;-67
2023/10/27 07:44:56;;;;;;;10.07;6.50;;;;;;;21.51;48.42;94050.78;6024124;28;109143;-65
2023/10/27 07:48:05;;;;;;;8.10;7.27;;;;;;;21.51;48.16;94060.66;6041416;28;109328;-65
2023/10/27 07:51:08;;;;;;;7.90;6.60;;;;;;;21.49;47.96;94052.97;6031304;28;110976;-65
2023/10/27 07:54:11;;;;;;;11.00;6.03;;;;;;;21.56;48.49;94046.34;6041270;28;110146;-65
2023/10/27 07:57:14;;;;;;;9.17;6.43;;;;;;;21.67;47.95;94036.84;6041437;28;110916;-65
2023/10/27 08:00:18;;;;;;;10.80;5.73;;;;;;;21.68;48.19;94049.84;6021578;28;109096;-64
2023/10/27 08:03:24;;;;;;;7.87;6.20;;;;;;;21.71;47.86;94056.41;6037072;28;108791;-65
2023/10/27 08:06:27;;;;;;;7.47;5.20;;;;;;;21.71;48.41;94059.06;6040775;28;108997;-65
2023/10/27 08:09:31;;;;;;;9.37;5.73;;;;;;;21.70;48.23;94037.00;6039895;28;109170;-65
2023/10/27 08:12:34;;;;;;;7.80;5.70;;;;;;;21.72;47.99;94026.78;6030844;28;110426;-65
2023/10/27 08:15:38;;;;;;;9.70;5.80;;;;;;;21.77;47.85;94025.78;6040830;28;109377;-66
2023/10/27 08:18:42;;;;;;;6.57;5.43;;;;;;;21.81;47.87;94006.16;6040774;28;109220;-66
2023/10/27 08:21:48;;;;;;;8.83;6.40;;;;;;;21.88;48.08;93999.56;6041017;28;109146;-65
2023/10/27 08:24:51;;;;;;;8.07;6.00;;;;;;;21.94;47.79;94038.19;6032548;28;111273;-65
2023/10/27 08:27:54;;;;;;;8.13;5.57;;;;;;;21.96;48.01;93994.13;6042494;28;110180;-65
2023/10/27 08:30:58;;;;;;;8.23;5.90;;;;;;;21.99;47.94;93980.16;6041390;28;108972;-65
2023/10/27 08:34:04;;;;;;;7.40;6.17;;;;;;;21.99;47.83;94000.69;6039891;28;109113;-65
2023/10/27 08:37:07;;;;;;;8.07;5.70;;;;;;;21.96;48.00;94007.44;6039289;28;109324;-65
2023/10/27 08:40:12;;;;;;;7.20;5.97;;;;;;;21.95;48.11;94013.88;6043631;28;109132;-65
2023/10/27 08:43:15;;;;;;;9.17;6.63;;;;;;;21.94;48.34;94001.69;6044906;28;109287;-66
2023/10/27 08:46:19;;;;;;;10.33;8.17;;;;;;;21.94;48.21;94008.91;6034176;28;109063;-65
2023/10/27 08:49:24;;;;;;;10.53;9.00;;;;;;;21.93;47.97;94024.09;6044665;28;109085;-66
2023/10/27 08:52:27;;;;;;;9.90;8.90;;;;;;;21.91;48.38;94018.31;6044153;28;109160;-66
2023/10/27 08:55:32;;;;;;;10.53;9.53;;;;;;;21.91;47.93;94015.66;6044453;28;109225;-64
2023/10/27 08:58:35;;;;;;;10.37;9.37;;;;;;;21.93;48.43;94008.13;6027558;28;109794;-65
2023/10/27 09:01:38;;;;;;;10.57;9.47;;;;;;;21.94;47.80;94015.00;6044300;28;109402;-66
2023/10/27 09:04:44;;;;;;;10.33;9.33;;;;;;;21.93;48.50;94016.09;6036579;28;109269;-65
2023/10/27 09:07:48;;;;;;;15.40;9.90;;;;;;;21.94;47.75;94000.91;6019643;29;109490;-63
2023/10/27 09:10:51;;;;;;;13.23;10.73;;;;;;;21.92;48.12;94001.25;6012398;28;109250;-65
2023/10/27 09:13:54;;;;;;;12.30;11.10;;;;;;;21.94;47.99;93991.03;6020986;28;110072;-65
2023/10/27 09:17:06;;;;;;;10.50;8.93;;;;;;;21.97;47.66;93995.69;6020887;29;109038;-65
2023/10/27 09:20:12;;;;;;;11.73;9.87;;;;;;;21.97;47.75;94003.69;6010670;28;110359;-65
2023/10/27 09:23:15;;;;;;;13.70;10.67;;;;;;;21.98;48.35;93981.25;6021059;29;109190;-66
2023/10/27 09:26:18;;;;;;;10.60;9.50;;;;;;;22.02;47.74;93978.75;6020074;28;110395;-65
2023/10/27 09:29:22;;;;;;;11.00;9.20;;;;;;;22.03;48.08;93959.75;6020170;28;109182;-65
2023/10/27 09:32:26;;;;;;;10.97;9.97;;;;;;;22.04;47.54;93955.22;6010482;29;110402;-68
2023/10/27 09:35:30;;;;;;;10.07;8.70;;;;;;;22.03;47.72;93954.44;6019472;28;109379;-66
2023/10/27 09:38:34;;;;;;;9.10;8.07;;;;;;;22.03;47.72;93938.44;6020345;29;109249;-65
2023/10/27 09:41:41;;;;;;;8.47;7.57;;;;;;;22.02;47.41;93941.44;6019419;28;109133;-66
2023/10/27 09:44:51;;;;;;;9.10;8.03;;;;;;;22.02;47.45;93920.91;6014745;28;109100;-66
2023/10/27 09:48:02;;;;;;;9.70;7.50;;;;;;;22.03;47.80;93922.47;6043438;28;109028;-66
2023/10/27 09:51:11;;;;;;;8.93;7.83;;;;;;;22.01;47.47;93916.69;6043699;28;109103;-66
2023/10/27 09:54:15;;;;;;;7.83;7.03;;;;;;;22.02;47.55;93923.56;6032197;28;109119;-66
2023/10/27 09:57:18;;;;;;;7.90;7.10;;;;;;;22.03;47.65;93927.00;6043360;28;109268;-65
2023/10/27 10:00:24;;;;;;;8.40;7.53;;;;;;;22.02;47.83;93904.16;6023287;28;109952;-66
2023/10/27 10:03:28;;;;;;;7.07;6.37;;;;;;;21.99;47.83;93910.91;6020354;29;109105;-66
2023/10/27 10:06:34;;;;;;;8.10;7.27;;;;;;;22.00;47.85;93901.00;6009301;28;109265;-66
2023/10/27 10:09:52;;;;;;;7.47;6.80;;;;;;;21.98;47.44;93904.00;6019596;28;109179;-66
2023/10/27 10:13:07;;;;;;;7.00;6.30;;;;;;;21.98;47.55;93887.25;6018979;29;109231;-66
2023/10/27 10:16:11;;;;;;;8.17;6.20;;;;;;;21.97;46.96;93891.81;6014975;28;110235;-65
2023/10/27 10:19:50;;;;;;;10.30;7.17;;;;;;;21.98;46.82;93905.91;6014309;28;110171;-65
2023/10/27 10:22:55;;;;;;;8.43;6.40;;;;;;;21.97;46.97;93902.47;6020021;29;110126;-65
2023/10/27 10:26:01;;;;;;;6.20;5.60;;;;;;;21.95;47.07;93912.66;6019530;28;109091;-66
2023/10/27 10:29:28;;;;;;;6.50;5.90;;;;;;;21.97;46.91;93912.34;6008368;28;110600;-65
2023/10/27 10:32:36;;;;;;;6.33;5.53;;;;;;;21.96;47.29;93916.13;5996496;29;109479;-66
2023/10/27 10:35:39;;;;;;;6.53;5.93;;;;;;;21.97;46.92;93930.97;6007096;28;109014;-65
2023/10/27 10:38:45;;;;;;;6.90;6.00;;;;;;;21.96;47.22;93919.56;6016464;29;109215;-64
2023/10/27 10:42:04;;;;;;;6.80;5.50;;;;;;;21.96;47.28;93916.88;6013894;28;111531;-65
2023/10/27 10:45:08;;;;;;;5.70;5.10;;;;;;;21.97;46.84;93907.00;6018665;28;109189;-66
2023/10/27 10:48:11;;;;;;;5.70;4.67;;;;;;;21.97;47.01;93907.78;6019034;29;109258;-67
2023/10/27 10:51:15;;;;;;;6.20;5.60;;;;;;;21.96;47.05;93903.56;6009372;28;110159;-67
2023/10/27 10:54:28;;;;;;;6.07;5.17;;;;;;;21.98;47.16;93913.88;6018641;29;109056;-66
2023/10/27 10:57:31;;;;;;;7.23;5.97;;;;;;;21.97;47.16;93923.78;5995947;29;110206;-66
2023/10/27 11:00:35;;;;;;;5.03;4.53;;;;;;;21.96;46.57;93916.88;6023656;28;110028;-65
2023/10/27 11:03:38;;;;;;;4.40;4.00;;;;;;;21.95;46.90;93898.56;6031205;28;109161;-66
2023/10/27 11:06:41;;;;;;;4.70;4.00;;;;;;;21.96;46.31;93900.13;6025224;28;109049;-65
2023/10/27 11:09:45;;;;;;;6.50;4.23;;;;;;;21.95;46.27;93891.38;6018995;28;108800;-65
2023/10/27 11:12:49;;;;;;;5.53;4.10;;;;;;;21.96;46.52;93910.78;6015979;29;109502;-64
2023/10/27 11:15:52;;;;;;;5.77;3.53;;;;;;;21.95;45.92;93904.69;6012170;28;111969;-66
2023/10/27 11:18:57;;;;;;;5.63;4.10;;;;;;;21.95;46.07;93875.38;6018845;29;109616;-65
2023/10/27 11:22:00;;;;;;;4.30;3.63;;;;;;;21.94;46.05;93873.81;6036898;28;109091;-66
2023/10/27 11:25:06;;;;;;;4.00;3.20;;;;;;;21.96;46.20;93876.16;6032243;28;110389;-63
2023/10/27 11:28:21;;;;;;;4.53;3.23;;;;;;;21.95;45.65;93872.72;6041170;28;109528;-65
2023/10/27 11:31:27;;;;;;;4.80;3.30;;;;;;;21.96;45.77;93873.50;6018529;28;109390;-66
2023/10/27 11:34:32;;;;;;;5.30;3.43;;;;;;;21.95;45.86;93859.41;6018551;29;109065;-65
2023/10/27 11:37:38;;;;;;;3.47;3.17;;;;;;;21.95;45.75;93853.28;6008135;28;109988;-65
2023/10/27 11:40:43;;;;;;;4.00;3.10;;;;;;;21.94;46.15;93844.53;6017961;28;109265;-65
2023/10/27 11:43:46;;;;;;;5.03;3.53;;;;;;;21.95;46.17;93840.75;6018347;29;110394;-65
2023/10/27 11:46:51;;;;;;;3.83;3.07;;;;;;;21.94;45.58;93836.53;6015613;28;110141;-63
2023/10/27 11:49:54;;;;;;;3.80;2.97;;;;;;;21.95;45.84;93830.09;6011536;28;110459;-65
2023/10/27 11:52:58;;;;;;;4.93;3.10;;;;;;;21.95;45.97;93834.66;6017986;29;109318;-65
2023/10/27 11:56:04;;;;;;;3.77;3.13;;;;;;;21.94;45.75;93820.56;6018111;28;110267;-66
2023/10/27 11:59:10;;;;;;;4.87;3.50;;;;;;;21.95;45.44;93824.78;6009172;29;110107;-65
2023/10/27 12:02:15;;;;;;;3.10;2.80;;;;;;;21.95;45.91;93819.44;6040546;28;111483;-66
2023/10/27 12:05:18;;;;;;;2.37;2.17;;;;;;;21.95;45.68;93808.78;6045098;28;109341;-67
2023/10/27 12:08:22;;;;;;;2.90;2.40;;;;;;;21.96;45.60;93828.22;6046072;28;109607;-66
2023/10/27 12:11:27;;;;;;;3.60;2.60;;;;;;;21.96;45.59;93825.56;6034440;28;109279;-66
2023/10/27 12:14:30;;;;;;;3.60;2.30;;;;;;;21.95;45.37;93819.44;6045700;28;110199;-66
2023/10/27 12:17:34;;;;;;;4.40;2.73;;;;;;;21.96;45.65;93814.91;6044494;28;110117;-67
2023/10/27 12:20:39;;;;;;;3.13;2.43;;;;;;;21.95;45.84;93800.03;6044624;28;109086;-65
2023/10/27 12:23:43;;;;;;;2.60;2.10;;;;;;;21.96;45.49;93794.38;6034929;28;110088;-65
2023/10/27 12:26:47;;;;;;;3.40;2.00;;;;;;;21.96;45.44;93783.72;6044029;28;109147;-65
2023/10/27 12:29:50;;;;;;;2.73;2.17;;;;;;;21.95;45.73;93776.81;6032842;28;110572;-66
2023/10/27 12:32:54;;;;;;;3.50;2.30;;;;;;;21.96;45.83;93769.63;6015314;28;109333;-63
2023/10/27 12:35:57;;;;;;;3.30;2.47;;;;;;;21.96;45.35;93764.28;6018805;28;108909;-65
2023/10/27 12:39:02;;;;;;;3.13;2.10;;;;;;;21.95;45.16;93760.84;6021868;29;109856;-66
2023/10/27 12:42:07;;;;;;;2.33;2.00;;;;;;;21.96;45.52;93780.28;6036282;28;108797;-65
2023/10/27 12:45:13;;;;;;;2.50;2.00;;;;;;;21.95;45.91;93768.84;6033885;28;109115;-66
2023/10/27 12:48:16;;;;;;;3.43;1.90;;;;;;;21.95;45.33;93786.72;6020803;29;109062;-66
2023/10/27 12:51:19;;;;;;;4.10;2.00;;;;;;;21.96;45.16;93790.94;6021339;28;110148;-66
2023/10/27 12:54:22;;;;;;;3.13;2.07;;;;;;;21.95;45.43;93779.50;6021367;29;109634;-66
2023/10/27 12:57:27;;;;;;;2.20;1.70;;;;;;;21.96;45.75;93798.91;6011110;28;110287;-66
2023/10/27 13:00:31;;;;;;;3.10;1.70;;;;;;;21.96;45.90;93782.94;6020894;28;110283;-65
2023/10/27 13:03:35;;;;;;;2.30;1.83;;;;;;;21.96;45.68;93805.00;6021222;29;110031;-66
2023/10/27 13:06:38;;;;;;;2.90;2.00;;;;;;;21.96;45.51;93820.22;6016170;28;109251;-65
2023/10/27 13:09:41;;;;;;;4.63;2.33;;;;;;;21.95;45.26;93816.78;6015836;29;110014;-66
2023/10/27 13:12:46;;;;;;;2.90;1.83;;;;;;;21.95;45.29;93808.00;6020962;28;108986;-66
2023/10/27 13:15:49;;;;;;;3.27;1.87;;;;;;;21.94;45.58;93801.91;6024274;28;109286;-66
2023/10/27 13:18:52;;;;;;;2.70;1.60;;;;;;;21.94;45.58;93798.47;6033562;28;110262;-66
2023/10/27 13:21:56;;;;;;;3.00;1.63;;;;;;;21.94;45.89;93796.59;6043950;28;109408;-67
2023/10/27 13:24:59;;;;;;;3.43;1.70;;;;;;;21.92;45.77;93811.34;6044159;28;109244;-66
2023/10/27 13:28:04;;;;;;;2.43;1.60;;;;;;;21.91;45.44;93815.13;6042828;28;109565;-66
2023/10/27 13:31:07;;;;;;;2.50;1.50;;;;;;;21.90;45.95;93794.94;6016351;28;109605;-66
2023/10/27 13:34:13;;;;;;;3.67;1.70;;;;;;;21.89;45.47;93804.81;6043894;28;109048;-66
2023/10/27 13:37:17;;;;;;;2.60;1.70;;;;;;;21.89;45.68;93809.38;6043114;28;109083;-66
2023/10/27 13:40:20;;;;;;;2.20;1.60;;;;;;;21.89;45.33;93802.16;6044118;28;110200;-66
2023/10/27 13:43:24;;;;;;;2.83;1.70;;;;;;;21.88;45.55;93799.81;6013036;28;110271;-66
2023/10/27 13:46:27;;;;;;;2.73;1.70;;;;;;;21.88;46.00;93803.25;6027389;28;109148;-67
2023/10/27 13:49:32;;;;;;;3.03;1.53;;;;;;;21.88;45.92;93792.59;6043348;28;110239;-67
2023/10/27 13:52:35;;;;;;;2.87;2.00;;;;;;;21.87;46.19;93796.38;6033082;28;110608;-66
2023/10/27 13:55:44;;;;;;;2.60;1.40;;;;;;;21.86;45.50;93776.19;6043537;28;110233;-66
2023/10/27 13:58:49;;;;;;;3.40;1.90;;;;;;;21.85;45.27;93747.25;6040801;28;109046;-68
2023/10/27 14:01:53;;;;;;;3.37;1.67;;;;;;;21.84;45.98;93762.41;6029028;28;109122;-67
2023/10/27 14:04:56;;;;;;;4.50;2.07;;;;;;;21.84;45.46;93762.41;6032743;28;109228;-65
2023/10/27 14:07:59;;;;;;;3.90;2.10;;;;;;;21.83;45.55;93734.22;6027330;28;109263;-65
2023/10/27 14:11:05;;;;;;;3.10;1.90;;;;;;;21.84;45.81;93759.75;6022104;28;108872;-65
2023/10/27 14:14:12;;;;;;;3.83;1.80;;;;;;;21.81;45.48;93731.88;6043524;28;110378;-65